Time;durP1;ratioP1;P1;durP2;ratioP2;P2;SDS_P1;SDS_P2;PMS_P1;PMS_P2;Temp;Humidity;BMP_temperature;BMP_pressure;BME280_temperature;BME280_humidity;BME280_pressure;Samples;Min_cycle;Max_cycle;Signal;HPM_P1;HPM_P2
2022/08/20 00:01:24;;;;;;;17.58;13.10;;;17.90;93.00;;;;;;5036085;28;20037;-83
2022/08/20 00:03:49;;;;;;;18.17;14.25;;;17.90;93.40;;;;;;5040627;28;20014;-83
2022/08/20 00:06:18;;;;;;;17.23;14.10;;;17.90;93.70;;;;;;5034503;28;20033;-83
2022/08/20 00:08:45;;;;;;;22.05;16.30;;;17.90;93.70;;;;;;5031580;28;20642;-83
2022/08/20 00:11:15;;;;;;;19.88;15.93;;;17.90;93.80;;;;;;5030703;28;20025;-83
2022/08/20 00:13:47;;;;;;;19.25;15.60;;;17.90;93.80;;;;;;5037213;28;20040;-83
2022/08/20 00:16:15;;;;;;;19.88;15.25;;;17.90;93.70;;;;;;5029447;28;20159;-83
2022/08/20 00:18:41;;;;;;;20.00;16.10;;;17.90;93.60;;;;;;5039419;28;20064;-83
2022/08/20 00:21:09;;;;;;;19.98;15.90;;;18.00;93.50;;;;;;5037968;28;20033;-83
2022/08/20 00:23:40;;;;;;;18.95;15.25;;;17.90;93.50;;;;;;5039063;28;20117;-83
2022/08/20 00:26:06;;;;;;;21.20;16.80;;;17.90;93.40;;;;;;5041638;28;20064;-83
2022/08/20 00:28:32;;;;;;;19.08;14.70;;;17.80;93.30;;;;;;5024367;28;20037;-82
2022/08/20 00:30:58;;;;;;;18.48;13.88;;;17.80;93.00;;;;;;5040477;28;20143;-84
2022/08/20 00:33:24;;;;;;;16.90;14.25;;;17.80;92.70;;;;;;5038955;28;20105;-84
2022/08/20 00:35:53;;;;;;;17.67;14.27;;;17.80;92.40;;;;;;5036241;28;20040;-83
2022/08/20 00:38:19;;;;;;;19.52;14.75;;;17.80;91.90;;;;;;5034896;28;20033;-83
2022/08/20 00:40:49;;;;;;;18.83;13.75;;;17.80;91.40;;;;;;5039128;28;20039;-83
2022/08/20 00:43:29;;;;;;;15.88;12.32;;;17.70;91.20;;;;;;5039596;28;20041;-83
2022/08/20 00:45:56;;;;;;;15.93;11.87;;;17.70;90.60;;;;;;5035695;28;20124;-82
2022/08/20 00:48:29;;;;;;;14.35;11.45;;;17.70;90.50;;;;;;5040919;28;20052;-83
2022/08/20 00:51:02;;;;;;;13.40;11.38;;;17.60;90.20;;;;;;5036847;28;20085;-83
2022/08/20 00:53:28;;;;;;;14.00;11.32;;;17.60;89.80;;;;;;5029650;28;20029;-83
2022/08/20 00:55:55;;;;;;;14.38;11.40;;;17.60;89.80;;;;;;5025811;28;20480;-83
2022/08/20 00:58:20;;;;;;;17.45;12.63;;;17.60;89.90;;;;;;5037231;28;20025;-84
2022/08/20 01:00:48;;;;;;;17.17;11.98;;;17.60;90.00;;;;;;5040057;28;20507;-83
2022/08/20 01:03:16;;;;;;;19.08;13.00;;;17.60;90.00;;;;;;5037701;28;20041;-83
2022/08/20 01:05:45;;;;;;;16.75;13.15;;;17.50;89.90;;;;;;5035473;28;20021;-83
2022/08/20 01:08:11;;;;;;;18.73;13.10;;;17.60;90.00;;;;;;5038035;28;20100;-83
2022/08/20 01:10:40;;;;;;;15.75;12.88;;;17.50;89.60;;;;;;5039402;28;20068;-83
2022/08/20 01:13:09;;;;;;;15.48;12.07;;;17.50;89.40;;;;;;5036048;28;20033;-84
2022/08/20 01:15:40;;;;;;;14.02;11.13;;;17.50;89.20;;;;;;5038072;28;20028;-83
2022/08/20 01:18:11;;;;;;;13.70;10.98;;;17.50;89.10;;;;;;5032856;28;20028;-84
2022/08/20 01:20:46;;;;;;;13.23;10.30;;;17.50;88.90;;;;;;5026173;28;20034;-82
2022/08/20 01:23:26;;;;;;;11.88;9.45;;;17.50;88.70;;;;;;5034675;28;20022;-82
2022/08/20 01:26:13;;;;;;;12.52;9.32;;;17.50;88.60;;;;;;5033283;28;20025;-82
2022/08/20 01:28:45;;;;;;;13.32;8.98;;;17.50;88.40;;;;;;5026218;28;20018;-83
2022/08/20 01:31:16;;;;;;;10.75;8.73;;;17.50;88.20;;;;;;5032143;28;20124;-83
2022/08/20 01:33:43;;;;;;;11.98;8.45;;;17.50;88.00;;;;;;5037303;28;20029;-82
2022/08/20 01:36:10;;;;;;;11.68;8.60;;;17.50;88.20;;;;;;5037425;28;20052;-83
2022/08/20 01:38:36;;;;;;;10.35;8.05;;;17.50;88.10;;;;;;5038567;28;20026;-82
2022/08/20 01:41:20;;;;;;;10.50;8.23;;;17.40;87.80;;;;;;5037380;28;20029;-83
2022/08/20 01:43:47;;;;;;;10.90;8.32;;;17.40;87.90;;;;;;5036925;28;20026;-82
2022/08/20 01:46:14;;;;;;;11.00;8.60;;;17.30;88.10;;;;;;5034406;28;20042;-83
2022/08/20 01:48:41;;;;;;;16.05;7.78;;;17.30;88.40;;;;;;5032491;28;20051;-82
2022/08/20 01:51:19;;;;;;;10.52;7.78;;;17.30;88.10;;;;;;5031529;28;20029;-83
2022/08/20 01:53:47;;;;;;;11.32;7.97;;;17.30;88.20;;;;;;5027484;28;20498;-83
2022/08/20 01:56:16;;;;;;;9.43;7.30;;;17.30;88.00;;;;;;5034998;28;20030;-83
2022/08/20 01:58:45;;;;;;;12.40;8.18;;;17.30;88.40;;;;;;5031600;28;20030;-83
2022/08/20 02:01:39;;;;;;;10.63;7.97;;;17.30;88.40;;;;;;5032607;28;20033;-83
2022/08/20 02:04:07;;;;;;;11.25;7.63;;;17.30;88.40;;;;;;5028982;28;20139;-83
2022/08/20 02:06:36;;;;;;;11.35;7.85;;;17.30;88.40;;;;;;5034020;28;20025;-83
2022/08/20 02:09:02;;;;;;;10.10;6.90;;;17.30;88.40;;;;;;5035503;28;20033;-83
2022/08/20 02:11:30;;;;;;;11.05;7.88;;;17.30;88.30;;;;;;5037384;28;20391;-83
2022/08/20 02:13:56;;;;;;;10.63;7.85;;;17.20;87.80;;;;;;5035996;28;20021;-83
2022/08/20 02:16:28;;;;;;;10.45;7.20;;;17.20;87.70;;;;;;5036455;28;20049;-83
2022/08/20 02:18:57;;;;;;;9.73;6.95;;;17.20;88.20;;;;;;5032294;28;20025;-83
2022/08/20 02:21:26;;;;;;;9.57;6.82;;;17.20;88.40;;;;;;5032211;28;20088;-83
2022/08/20 02:23:52;;;;;;;8.77;7.03;;;17.10;88.70;;;;;;5027331;28;20461;-83
2022/08/20 02:26:18;;;;;;;7.97;6.38;;;17.10;88.70;;;;;;5031429;28;20098;-83
2022/08/20 02:28:47;;;;;;;10.13;7.45;;;17.10;88.40;;;;;;5033457;28;20104;-83
2022/08/20 02:31:13;;;;;;;10.80;7.50;;;17.10;88.30;;;;;;5028612;28;20030;-83
2022/08/20 02:33:38;;;;;;;12.00;7.45;;;17.20;88.40;;;;;;5036659;28;20408;-82
2022/08/20 02:36:04;;;;;;;10.60;7.60;;;17.20;88.50;;;;;;5031540;28;20531;-83
2022/08/20 02:38:33;;;;;;;11.00;7.78;;;17.20;88.50;;;;;;5033420;28;20021;-83
2022/08/20 02:40:59;;;;;;;11.50;7.78;;;17.30;88.50;;;;;;5036493;28;20034;-83
2022/08/20 02:43:25;;;;;;;10.20;7.65;;;17.20;88.50;;;;;;5031790;28;20377;-82
2022/08/20 02:45:50;;;;;;;8.52;7.13;;;17.30;88.30;;;;;;5034075;28;20049;-82
2022/08/20 02:48:19;;;;;;;9.65;6.90;;;17.30;88.10;;;;;;5031862;28;20087;-83
2022/08/20 02:50:49;;;;;;;11.07;6.97;;;17.30;87.90;;;;;;5034180;28;20030;-82
2022/08/20 02:53:15;;;;;;;9.88;7.32;;;17.30;87.70;;;;;;5036453;28;20467;-83
2022/08/20 02:55:41;;;;;;;10.52;7.22;;;17.30;87.50;;;;;;5035771;28;20033;-82
2022/08/20 02:58:07;;;;;;;10.82;6.80;;;17.40;87.90;;;;;;5032542;28;20037;-83
2022/08/20 03:00:33;;;;;;;10.25;6.72;;;17.40;88.10;;;;;;5037567;28;20033;-83
2022/08/20 03:02:59;;;;;;;8.45;6.43;;;17.40;88.10;;;;;;5037211;28;20021;-83
2022/08/20 03:05:26;;;;;;;10.75;7.38;;;17.40;88.10;;;;;;5038154;28;20021;-83
2022/08/20 03:07:52;;;;;;;10.70;8.10;;;17.40;88.30;;;;;;5038258;28;20022;-83
2022/08/20 03:10:23;;;;;;;10.23;7.05;;;17.40;88.00;;;;;;5032359;28;20096;-83
2022/08/20 03:12:48;;;;;;;9.85;6.72;;;17.30;88.30;;;;;;5049167;28;20025;-83
2022/08/20 03:15:14;;;;;;;10.43;7.68;;;17.30;88.50;;;;;;5032309;28;20037;-83
2022/08/20 03:17:39;;;;;;;10.70;7.55;;;17.20;88.60;;;;;;5037318;28;20060;-83
2022/08/20 03:20:06;;;;;;;10.90;8.10;;;17.20;88.90;;;;;;5037242;28;20032;-83
2022/08/20 03:22:32;;;;;;;11.32;8.10;;;17.20;88.70;;;;;;5036443;28;20032;-84
2022/08/20 03:24:58;;;;;;;12.05;7.88;;;17.30;88.70;;;;;;5036950;28;20033;-83
2022/08/20 03:27:23;;;;;;;13.48;8.80;;;17.30;89.00;;;;;;5040170;28;20021;-83
2022/08/20 03:29:49;;;;;;;11.02;7.72;;;17.30;88.90;;;;;;5037582;28;20043;-82
2022/08/20 03:32:14;;;;;;;10.65;8.50;;;17.30;88.90;;;;;;5041345;28;20033;-83
2022/08/20 03:34:40;;;;;;;12.73;8.93;;;17.30;88.90;;;;;;5037295;28;20037;-83
2022/08/20 03:37:05;;;;;;;11.32;8.52;;;17.30;89.00;;;;;;5036054;28;20036;-83
2022/08/20 03:39:31;;;;;;;11.93;8.85;;;17.30;89.00;;;;;;5021486;28;20022;-83
2022/08/20 03:41:56;;;;;;;12.45;7.88;;;17.40;89.10;;;;;;5037863;28;20029;-83
2022/08/20 03:44:22;;;;;;;9.90;8.15;;;17.30;89.10;;;;;;5034807;28;20110;-83
2022/08/20 03:46:47;;;;;;;11.23;9.18;;;17.30;89.10;;;;;;5036386;28;20104;-83
2022/08/20 03:49:13;;;;;;;11.38;8.27;;;17.40;89.30;;;;;;5035283;28;20073;-84
2022/08/20 03:51:39;;;;;;;11.32;8.07;;;17.40;89.50;;;;;;5034219;28;20021;-83
2022/08/20 03:54:04;;;;;;;11.75;7.60;;;17.40;89.20;;;;;;5035600;28;20041;-83
2022/08/20 03:56:30;;;;;;;11.32;7.60;;;17.40;89.00;;;;;;5037233;28;20493;-83
2022/08/20 03:58:56;;;;;;;13.68;7.45;;;17.40;89.00;;;;;;5034492;28;20476;-83
2022/08/20 04:01:21;;;;;;;9.55;7.35;;;17.40;89.10;;;;;;5029117;28;20033;-83
2022/08/20 04:03:47;;;;;;;9.32;6.95;;;17.40;89.20;;;;;;5031182;28;20110;-83
2022/08/20 04:06:12;;;;;;;12.32;8.00;;;17.40;89.70;;;;;;5034380;28;20026;-83
2022/08/20 04:08:39;;;;;;;10.15;7.22;;;17.40;89.80;;;;;;5032401;28;20452;-81
2022/08/20 04:11:05;;;;;;;9.75;6.88;;;17.40;89.80;;;;;;5030429;28;20017;-82
2022/08/20 04:13:31;;;;;;;8.85;6.30;;;17.40;89.90;;;;;;5029896;28;20083;-80
2022/08/20 04:15:59;;;;;;;11.07;6.97;;;17.40;89.80;;;;;;5034485;28;20036;-83
2022/08/20 04:18:25;;;;;;;11.25;7.45;;;17.40;90.00;;;;;;5031603;28;20484;-79
2022/08/20 04:20:52;;;;;;;10.13;6.90;;;17.40;90.20;;;;;;5032996;28;20025;-81
2022/08/20 04:23:19;;;;;;;10.68;7.03;;;17.40;90.70;;;;;;5033394;28;20461;-80
2022/08/20 04:25:45;;;;;;;9.48;7.07;;;17.40;90.80;;;;;;5030670;28;20021;-80
2022/08/20 04:28:15;;;;;;;13.00;7.43;;;17.40;91.00;;;;;;5026713;28;20029;-81
2022/08/20 04:30:41;;;;;;;11.05;7.40;;;17.40;91.10;;;;;;5032151;28;20120;-80
2022/08/20 04:33:07;;;;;;;13.10;8.52;;;17.30;91.10;;;;;;5032756;28;20453;-80
2022/08/20 04:35:32;;;;;;;13.68;7.68;;;17.40;91.50;;;;;;5034616;28;20187;-80
2022/08/20 04:38:13;;;;;;;11.38;8.27;;;17.30;91.70;;;;;;5034708;28;20123;-79
2022/08/20 04:40:56;;;;;;;12.70;7.93;;;17.20;92.00;;;;;;5031050;28;20018;-80
2022/08/20 04:43:27;;;;;;;13.98;7.93;;;17.20;92.30;;;;;;5032363;28;20021;-80
2022/08/20 04:45:53;;;;;;;;;;;17.20;92.30;;;;;;5034556;28;20042;-79
2022/08/20 04:48:22;;;;;;;12.90;8.70;;;17.20;92.30;;;;;;5031531;28;19913;-79
2022/08/20 04:50:49;;;;;;;12.93;9.07;;;17.20;92.30;;;;;;5030646;28;20038;-80
2022/08/20 04:53:16;;;;;;;13.35;8.25;;;17.10;92.20;;;;;;5031934;28;20039;-80
2022/08/20 04:55:44;;;;;;;12.43;9.00;;;17.20;92.20;;;;;;5031968;28;20116;-79
2022/08/20 04:58:17;;;;;;;13.13;8.38;;;17.10;92.30;;;;;;5025070;28;20025;-81
2022/08/20 05:00:48;;;;;;;14.52;8.85;;;17.20;92.40;;;;;;5014504;28;20033;-81
2022/08/20 05:03:15;;;;;;;12.63;8.40;;;17.20;92.30;;;;;;5039307;28;20033;-81
2022/08/20 05:05:40;;;;;;;12.57;8.68;;;17.20;92.50;;;;;;5026862;28;20120;-80
2022/08/20 05:08:07;;;;;;;13.95;9.27;;;17.20;92.60;;;;;;5026851;28;20128;-81
2022/08/20 05:10:33;;;;;;;12.30;8.63;;;17.20;92.70;;;;;;5029366;28;20029;-79
2022/08/20 05:12:59;;;;;;;12.65;8.75;;;17.30;92.60;;;;;;5028565;28;20518;-79
2022/08/20 05:15:25;;;;;;;13.13;8.70;;;17.30;92.50;;;;;;5032902;28;20063;-79
2022/08/20 05:17:55;;;;;;;13.63;9.40;;;17.30;92.30;;;;;;5030890;28;20037;-79
2022/08/20 05:20:21;;;;;;;12.40;8.53;;;17.30;92.30;;;;;;5034145;28;20041;-80
2022/08/20 05:22:46;;;;;;;10.70;8.02;;;17.50;92.30;;;;;;5025717;28;20032;-80
2022/08/20 05:25:13;;;;;;;11.10;8.10;;;17.50;92.40;;;;;;5032649;28;20956;-80
2022/08/20 05:27:40;;;;;;;13.40;8.93;;;17.60;92.80;;;;;;5027952;28;20080;-82
2022/08/20 05:30:09;;;;;;;13.00;8.88;;;17.60;92.90;;;;;;5032509;28;20029;-80
2022/08/20 05:32:35;;;;;;;12.02;8.55;;;17.70;92.70;;;;;;5033250;28;20033;-79
2022/08/20 05:35:03;;;;;;;14.13;8.90;;;17.80;92.60;;;;;;5033481;28;20040;-81
2022/08/20 05:37:30;;;;;;;11.40;7.90;;;17.90;92.60;;;;;;5031556;28;20025;-80
2022/08/20 05:39:55;;;;;;;11.63;7.85;;;18.00;92.40;;;;;;5031216;28;20485;-80
2022/08/20 05:42:21;;;;;;;12.20;8.20;;;18.00;92.30;;;;;;5031370;28;20044;-80
2022/08/20 05:44:46;;;;;;;11.40;7.63;;;18.10;92.00;;;;;;5026260;28;20093;-80
2022/08/20 05:47:13;;;;;;;13.35;8.98;;;18.20;91.90;;;;;;5024389;28;20087;-80
2022/08/20 05:49:40;;;;;;;11.00;7.60;;;18.40;91.80;;;;;;5022824;28;20057;-80
2022/08/20 05:52:06;;;;;;;10.65;8.32;;;18.50;91.40;;;;;;5024743;28;20026;-82
2022/08/20 05:54:32;;;;;;;10.52;8.15;;;18.50;91.60;;;;;;5032838;28;20075;-79
2022/08/20 05:56:57;;;;;;;9.13;7.18;;;18.60;91.60;;;;;;5031044;28;20438;-81
2022/08/20 05:59:24;;;;;;;13.50;8.80;;;18.60;91.60;;;;;;5031781;28;20144;-80
2022/08/20 06:01:51;;;;;;;11.20;8.10;;;18.60;91.70;;;;;;5028420;28;20036;-80
2022/08/20 06:04:23;;;;;;;12.40;8.13;;;18.50;91.80;;;;;;5031156;28;20022;-80
2022/08/20 06:06:50;;;;;;;14.48;8.35;;;18.60;91.80;;;;;;5030901;28;20032;-80
2022/08/20 06:09:19;;;;;;;11.30;8.30;;;18.60;91.90;;;;;;5030619;28;20082;-80
2022/08/20 06:11:45;;;;;;;10.95;7.80;;;18.60;92.00;;;;;;5028922;28;20026;-80
2022/08/20 06:14:10;;;;;;;13.90;8.63;;;18.70;92.00;;;;;;5029148;28;20055;-81
2022/08/20 06:16:36;;;;;;;10.65;7.43;;;18.70;92.10;;;;;;5029591;28;20025;-80
2022/08/20 06:19:02;;;;;;;10.27;7.85;;;18.80;92.00;;;;;;5033493;28;20022;-80
2022/08/20 06:21:27;;;;;;;13.68;8.15;;;18.90;91.70;;;;;;5031411;28;20057;-80
2022/08/20 06:23:53;;;;;;;10.63;7.53;;;19.00;92.00;;;;;;5032062;28;20108;-80
2022/08/20 06:26:18;;;;;;;10.77;7.50;;;19.10;91.60;;;;;;5034500;28;20029;-80
2022/08/20 06:28:44;;;;;;;12.55;8.10;;;19.20;91.50;;;;;;5038621;28;20029;-81
2022/08/20 06:31:10;;;;;;;11.98;7.95;;;19.30;91.50;;;;;;5030381;28;20396;-81
2022/08/20 06:33:36;;;;;;;10.77;7.15;;;19.30;91.30;;;;;;5028398;28;20112;-80
2022/08/20 06:36:01;;;;;;;12.57;7.78;;;19.30;91.70;;;;;;5028332;28;20110;-79
2022/08/20 06:38:27;;;;;;;10.70;8.13;;;19.20;91.90;;;;;;5029960;28;20615;-81
2022/08/20 06:40:52;;;;;;;13.13;8.50;;;19.30;92.10;;;;;;5033500;28;20036;-80
2022/08/20 06:43:18;;;;;;;14.48;9.65;;;19.40;92.10;;;;;;5036025;28;20041;-80
2022/08/20 06:45:43;;;;;;;14.52;10.20;;;19.30;92.40;;;;;;5043698;28;20049;-79
2022/08/20 06:48:13;;;;;;;14.20;9.48;;;19.30;92.50;;;;;;5033124;28;20083;-80
2022/08/20 06:50:41;;;;;;;14.70;10.38;;;19.40;92.70;;;;;;5027533;28;20037;-80
2022/08/20 06:53:09;;;;;;;15.77;10.75;;;19.40;92.70;;;;;;5033422;28;20391;-80
2022/08/20 06:55:38;;;;;;;12.98;10.27;;;19.40;92.70;;;;;;5022098;28;20018;-81
2022/08/20 06:58:06;;;;;;;18.17;10.65;;;19.50;92.70;;;;;;5025617;28;20032;-81
2022/08/20 07:00:32;;;;;;;16.70;10.63;;;19.50;92.50;;;;;;5036747;28;20018;-80
2022/08/20 07:03:01;;;;;;;16.27;10.90;;;19.70;92.50;;;;;;5037354;28;20365;-80
2022/08/20 07:05:29;;;;;;;15.65;10.63;;;19.90;92.20;;;;;;5033455;28;20079;-80
2022/08/20 07:07:54;;;;;;;15.68;10.18;;;20.00;91.70;;;;;;5031161;28;20086;-81
2022/08/20 07:10:22;;;;;;;16.20;10.70;;;20.30;91.10;;;;;;5034761;28;20061;-80
2022/08/20 07:12:49;;;;;;;14.55;10.70;;;20.30;91.00;;;;;;5030455;28;20033;-80
2022/08/20 07:15:16;;;;;;;16.60;10.95;;;20.40;90.90;;;;;;5035123;28;20026;-81
2022/08/20 07:17:41;;;;;;;14.85;10.55;;;20.50;90.60;;;;;;5041543;28;20064;-80
2022/08/20 07:20:11;;;;;;;15.18;10.50;;;20.50;90.30;;;;;;5038124;28;20037;-81
2022/08/20 07:22:36;;;;;;;14.77;10.55;;;20.60;90.10;;;;;;5038027;28;20013;-80
2022/08/20 07:25:08;;;;;;;16.58;10.70;;;20.60;90.20;;;;;;5036598;28;20589;-80
2022/08/20 07:27:34;;;;;;;13.50;9.95;;;20.80;89.90;;;;;;5037808;28;20026;-80
2022/08/20 07:32:45;;;;;;;12.85;8.88;;;21.10;88.60;;;;;;5037314;28;20033;-80
2022/08/20 07:35:13;;;;;;;10.95;8.07;;;21.30;87.20;;;;;;5041494;28;20025;-81
2022/08/20 07:37:48;;;;;;;11.07;7.70;;;21.60;86.70;;;;;;5031026;28;20033;-80
2022/08/20 07:40:17;;;;;;;10.75;7.05;;;21.50;85.80;;;;;;5036504;28;20099;-80
2022/08/20 07:42:43;;;;;;;10.20;6.82;;;21.30;85.10;;;;;;5030135;28;20022;-80
2022/08/20 07:45:12;;;;;;;9.18;6.80;;;21.20;85.00;;;;;;5035831;28;20099;-81
2022/08/20 07:47:40;;;;;;;11.00;6.70;;;21.20;84.80;;;;;;5037522;28;20445;-80
2022/08/20 07:50:07;;;;;;;8.90;5.60;;;21.30;84.40;;;;;;5038161;28;20028;-80
2022/08/20 07:52:35;;;;;;;8.38;5.85;;;21.70;82.90;;;;;;5040131;28;20113;-80
2022/08/20 07:55:08;;;;;;;6.90;5.13;;;22.00;81.90;;;;;;5036977;28;20022;-80
2022/08/20 07:57:34;;;;;;;10.02;4.55;;;22.10;80.00;;;;;;5035408;28;20036;-81
2022/08/20 08:00:00;;;;;;;8.23;5.05;;;22.20;80.10;;;;;;5024473;28;20154;-80
2022/08/20 08:02:26;;;;;;;9.10;4.88;;;22.00;79.90;;;;;;5036384;28;20117;-80
2022/08/20 08:04:52;;;;;;;9.20;5.35;;;22.00;80.10;;;;;;5034712;28;20032;-79
2022/08/20 08:07:18;;;;;;;9.50;5.25;;;22.00;80.50;;;;;;5034658;28;20037;-80
2022/08/20 08:09:45;;;;;;;7.75;5.15;;;22.20;80.30;;;;;;5037093;28;20332;-80
2022/08/20 08:12:13;;;;;;;9.82;5.35;;;22.20;79.10;;;;;;5036058;28;20044;-81
2022/08/20 08:14:41;;;;;;;10.50;4.78;;;22.10;78.80;;;;;;5037830;28;20031;-80
2022/08/20 08:17:08;;;;;;;8.32;4.03;;;22.20;79.10;;;;;;5034825;28;20037;-81
2022/08/20 08:19:39;;;;;;;10.15;5.25;;;22.50;79.50;;;;;;5028771;28;20029;-80
2022/08/20 08:22:07;;;;;;;7.45;4.63;;;22.50;78.40;;;;;;5037495;28;20060;-81
2022/08/20 08:24:33;;;;;;;6.80;4.63;;;22.80;78.40;;;;;;5036302;28;20079;-80
2022/08/20 08:26:58;;;;;;;7.22;4.45;;;22.70;78.00;;;;;;5035776;28;20104;-80
2022/08/20 08:29:24;;;;;;;6.32;4.00;;;22.50;76.90;;;;;;5033854;28;20068;-80
2022/08/20 08:31:49;;;;;;;7.00;4.50;;;22.50;77.60;;;;;;5037764;28;20034;-80
2022/08/20 08:34:15;;;;;;;7.72;4.45;;;22.60;77.80;;;;;;5036429;28;20386;-81
2022/08/20 08:36:43;;;;;;;7.40;3.97;;;22.60;77.50;;;;;;5036731;28;20030;-81
2022/08/20 08:39:08;;;;;;;5.93;3.50;;;22.50;77.00;;;;;;5034514;28;20056;-82
2022/08/20 08:41:40;;;;;;;5.60;3.10;;;22.60;75.90;;;;;;5024489;28;20029;-81
2022/08/20 08:44:11;;;;;;;5.63;2.67;;;22.50;76.50;;;;;;5038609;28;20021;-81
2022/08/20 08:46:41;;;;;;;7.85;3.67;;;22.50;76.50;;;;;;5034232;28;20062;-80
2022/08/20 08:49:11;;;;;;;6.50;2.88;;;22.50;76.20;;;;;;5037715;28;20049;-82
2022/08/20 08:51:40;;;;;;;5.38;2.53;;;22.40;76.10;;;;;;5030318;28;20021;-80
2022/08/20 08:54:07;;;;;;;9.00;2.97;;;22.60;74.60;;;;;;5020305;28;20029;-81
2022/08/20 08:56:33;;;;;;;5.20;2.63;;;23.20;74.70;;;;;;5032005;28;20021;-79
2022/08/20 08:59:07;;;;;;;6.65;2.17;;;23.00;71.10;;;;;;5036623;28;20097;-80
2022/08/20 09:01:44;;;;;;;5.97;2.50;;;23.10;72.30;;;;;;5036401;28;20481;-80
2022/08/20 09:04:12;;;;;;;7.63;2.35;;;23.10;72.00;;;;;;5024772;28;20030;-81
2022/08/20 09:06:39;;;;;;;5.63;2.60;;;23.00;72.50;;;;;;5037527;28;20025;-82
2022/08/20 09:09:05;;;;;;;5.90;2.42;;;23.60;72.20;;;;;;5028939;28;20104;-82
2022/08/20 09:11:43;;;;;;;5.35;2.40;;;23.70;70.00;;;;;;5035444;28;20029;-80
2022/08/20 09:14:08;;;;;;;5.15;1.92;;;23.90;69.30;;;;;;5038541;28;20112;-81
2022/08/20 09:16:34;;;;;;;5.35;2.00;;;23.60;68.60;;;;;;5026422;28;20072;-79
2022/08/20 09:18:59;;;;;;;5.47;2.25;;;24.00;66.90;;;;;;5046145;28;20121;-81
2022/08/20 09:21:25;;;;;;;5.75;1.90;;;24.00;68.00;;;;;;5032861;28;20037;-80
2022/08/20 09:23:50;;;;;;;7.25;1.80;;;24.30;68.60;;;;;;5034294;28;20026;-80
2022/08/20 09:26:15;;;;;;;7.53;1.75;;;24.50;68.40;;;;;;5034881;28;20036;-81
2022/08/20 09:28:41;;;;;;;6.00;1.70;;;24.10;68.10;;;;;;5043461;28;20048;-80
2022/08/20 09:31:07;;;;;;;3.30;1.20;;;24.50;65.90;;;;;;5031665;28;20144;-81
2022/08/20 09:33:32;;;;;;;4.68;1.77;;;24.30;65.30;;;;;;5028076;28;20025;-81
2022/08/20 09:35:58;;;;;;;5.60;1.52;;;24.40;65.60;;;;;;5034319;28;20037;-80
2022/08/20 09:38:23;;;;;;;6.20;1.70;;;24.50;67.30;;;;;;5031170;28;20044;-83
2022/08/20 09:40:49;;;;;;;6.03;1.83;;;24.60;65.80;;;;;;5025472;28;20065;-82
2022/08/20 09:43:14;;;;;;;5.85;1.50;;;24.50;65.60;;;;;;5031695;28;20060;-82
2022/08/20 09:45:40;;;;;;;7.65;1.52;;;24.20;64.30;;;;;;5034081;28;20095;-81
2022/08/20 09:48:05;;;;;;;4.43;1.10;;;24.20;63.10;;;;;;5028657;28;20409;-82
2022/08/20 09:50:33;;;;;;;2.97;1.15;;;24.40;60.90;;;;;;5030997;28;20028;-82
2022/08/20 09:53:00;;;;;;;6.57;1.45;;;24.30;59.30;;;;;;5026437;28;20816;-83
2022/08/20 09:55:53;;;;;;;3.85;1.30;;;24.30;61.00;;;;;;5023702;28;20095;-81
2022/08/20 09:58:34;;;;;;;5.75;1.88;;;24.60;62.60;;;;;;5023092;28;20084;-81
2022/08/20 10:01:10;;;;;;;6.72;1.70;;;24.90;63.50;;;;;;5021918;28;20161;-82
2022/08/20 10:03:36;;;;;;;6.80;2.20;;;24.90;62.70;;;;;;5021384;28;20028;-82
2022/08/20 10:06:01;;;;;;;6.88;2.22;;;24.80;62.10;;;;;;5021959;28;20112;-82
2022/08/20 10:08:27;;;;;;;6.30;1.65;;;25.00;61.80;;;;;;5024006;28;20080;-83
2022/08/20 10:10:53;;;;;;;6.82;1.98;;;24.70;62.60;;;;;;5023401;28;20022;-82
2022/08/20 10:13:18;;;;;;;4.15;1.80;;;24.80;63.40;;;;;;5022082;28;20048;-82
2022/08/20 10:15:44;;;;;;;7.40;1.90;;;24.50;63.90;;;;;;5022072;28;20075;-81
2022/08/20 10:18:09;;;;;;;4.03;1.63;;;24.40;63.80;;;;;;5020644;28;20044;-82
2022/08/20 10:20:35;;;;;;;7.07;1.75;;;24.40;64.00;;;;;;5018604;28;20041;-81
2022/08/20 10:23:02;;;;;;;5.80;1.77;;;24.30;63.80;;;;;;5042235;28;20026;-82
2022/08/20 10:25:27;;;;;;;6.55;1.75;;;24.10;64.80;;;;;;5023664;28;20040;-81
2022/08/20 10:27:53;;;;;;;9.18;1.75;;;24.40;63.60;;;;;;5026172;28;20018;-82
2022/08/20 10:30:19;;;;;;;4.95;2.00;;;24.30;64.30;;;;;;5024222;28;20029;-81
2022/08/20 10:32:45;;;;;;;6.25;1.80;;;24.00;65.50;;;;;;5021056;28;20121;-81
2022/08/20 10:35:11;;;;;;;6.07;1.80;;;24.00;65.00;;;;;;5022842;28;20065;-82
2022/08/20 10:37:36;;;;;;;6.97;1.95;;;23.90;65.60;;;;;;5022789;28;20445;-81
2022/08/20 10:40:03;;;;;;;5.35;1.80;;;23.80;66.30;;;;;;5021947;28;20061;-82
2022/08/20 10:42:28;;;;;;;7.00;1.55;;;23.80;66.60;;;;;;5020743;28;20330;-82
2022/08/20 10:44:54;;;;;;;7.13;1.85;;;24.00;66.40;;;;;;5029792;28;20044;-83
2022/08/20 10:47:24;;;;;;;7.28;1.92;;;24.00;66.60;;;;;;5031449;28;20044;-81
2022/08/20 10:49:52;;;;;;;7.45;1.80;;;24.20;66.10;;;;;;5032241;28;20060;-81
2022/08/20 10:52:18;;;;;;;2.50;1.17;;;24.10;64.90;;;;;;5032693;28;20029;-81
2022/08/20 10:54:44;;;;;;;7.72;1.80;;;24.00;64.60;;;;;;5034718;28;20388;-81
2022/08/20 10:57:19;;;;;;;7.00;2.17;;;24.00;64.00;;;;;;5033427;28;20096;-82
2022/08/20 10:59:47;;;;;;;7.22;1.90;;;24.00;63.40;;;;;;5038804;28;20538;-81
2022/08/20 11:02:14;;;;;;;3.47;1.58;;;23.80;62.80;;;;;;5033059;28;20021;-81
2022/08/20 11:04:40;;;;;;;4.95;1.45;;;24.00;62.60;;;;;;5026574;28;20026;-81
2022/08/20 11:07:22;;;;;;;8.70;2.00;;;24.00;63.00;;;;;;5033385;28;20078;-81
2022/08/20 11:09:48;;;;;;;8.23;1.63;;;23.90;63.50;;;;;;5033067;28;20026;-81
2022/08/20 11:12:16;;;;;;;6.85;1.80;;;23.70;64.10;;;;;;5028468;28;20057;-82
2022/08/20 11:14:41;;;;;;;6.57;1.42;;;23.90;64.00;;;;;;5034943;28;20061;-81
2022/08/20 11:17:07;;;;;;;8.95;1.90;;;24.10;62.40;;;;;;5045991;28;20029;-82
2022/08/20 11:19:38;;;;;;;7.43;1.67;;;24.20;63.50;;;;;;5021653;28;20056;-82
2022/08/20 11:22:04;;;;;;;4.45;1.67;;;24.20;61.80;;;;;;5031757;28;20487;-81
2022/08/20 11:24:29;;;;;;;3.80;1.33;;;24.00;61.80;;;;;;5030907;28;20037;-81
2022/08/20 11:26:55;;;;;;;4.55;1.80;;;24.20;61.30;;;;;;5030358;28;20485;-82
2022/08/20 11:29:21;;;;;;;6.00;1.63;;;24.40;60.10;;;;;;5031826;28;20113;-81
2022/08/20 11:31:47;;;;;;;8.05;1.90;;;24.60;59.80;;;;;;5033103;28;20488;-82
2022/08/20 11:34:13;;;;;;;5.15;1.65;;;24.50;59.90;;;;;;5040834;28;20048;-82
2022/08/20 11:36:39;;;;;;;6.82;1.90;;;24.60;59.80;;;;;;5034897;28;20091;-82
2022/08/20 11:39:05;;;;;;;7.53;1.75;;;24.50;60.00;;;;;;5028627;28;20040;-83
2022/08/20 11:41:30;;;;;;;5.80;1.52;;;24.50;60.70;;;;;;5032161;28;20038;-82
2022/08/20 11:43:55;;;;;;;6.20;1.23;;;24.50;58.10;;;;;;5034718;28;20025;-82
2022/08/20 11:46:21;;;;;;;7.50;1.48;;;24.50;57.30;;;;;;5031136;28;20054;-82
2022/08/20 11:48:46;;;;;;;8.13;1.60;;;24.50;56.80;;;;;;5016951;28;20504;-81
2022/08/20 11:51:12;;;;;;;4.97;0.93;;;24.90;56.90;;;;;;5033837;28;20025;-82
2022/08/20 11:53:37;;;;;;;6.03;1.33;;;25.00;55.20;;;;;;5029193;28;20514;-82
2022/08/20 11:56:03;;;;;;;6.20;1.30;;;25.00;55.50;;;;;;5034112;28;20079;-82
2022/08/20 11:58:28;;;;;;;5.10;1.17;;;25.40;54.70;;;;;;5034076;28;20025;-81
2022/08/20 12:00:54;;;;;;;7.13;1.40;;;25.20;54.70;;;;;;5033617;28;20481;-82
2022/08/20 12:03:19;;;;;;;5.43;1.42;;;24.90;55.30;;;;;;5034058;28;20032;-82
2022/08/20 12:05:46;;;;;;;3.63;1.10;;;25.00;55.10;;;;;;5032765;28;20044;-81
2022/08/20 12:08:14;;;;;;;4.45;1.13;;;25.30;54.20;;;;;;5024942;28;20521;-83
2022/08/20 12:10:39;;;;;;;3.45;1.10;;;25.30;53.20;;;;;;5027640;28;20079;-82
2022/08/20 12:13:06;;;;;;;4.28;1.42;;;25.30;52.50;;;;;;5022876;28;20112;-82
2022/08/20 12:15:34;;;;;;;5.35;1.35;;;25.60;52.40;;;;;;5023497;28;20022;-82
2022/08/20 12:18:00;;;;;;;5.22;1.25;;;25.30;52.40;;;;;;5021838;28;20057;-82
2022/08/20 12:20:25;;;;;;;3.53;1.02;;;25.30;52.70;;;;;;5031374;28;20035;-83
2022/08/20 12:22:52;;;;;;;5.65;1.35;;;25.40;52.30;;;;;;5031671;28;20084;-82
2022/08/20 12:25:19;;;;;;;5.43;1.33;;;25.20;50.50;;;;;;5019966;28;20029;-81
2022/08/20 12:27:45;;;;;;;2.55;1.20;;;25.30;50.40;;;;;;5029118;28;20056;-83
2022/08/20 12:30:16;;;;;;;5.25;1.10;;;25.90;49.40;;;;;;5034560;28;20038;-84
2022/08/20 12:32:41;;;;;;;;;;;26.80;48.90;;;;;;5030375;28;20116;-82
2022/08/20 12:35:08;;;;;;;3.72;1.23;;;26.70;46.20;;;;;;5038675;28;19955;-83
2022/08/20 12:37:34;;;;;;;4.30;1.10;;;27.20;46.30;;;;;;5027987;28;20021;-82
2022/08/20 12:40:03;;;;;;;5.47;1.40;;;27.00;45.30;;;;;;5021599;28;20358;-83
2022/08/20 12:42:31;;;;;;;4.72;1.05;;;26.90;45.30;;;;;;5019493;28;20116;-82
2022/08/20 12:44:58;;;;;;;5.88;1.17;;;27.10;44.50;;;;;;5023013;28;20029;-82